createdAt,value
2022-11-04T00:01:30.382Z,101015.22
2022-11-04T00:03:58.371Z,101017.19
2022-11-04T00:06:26.630Z,101018.88
2022-11-04T00:08:56.389Z,101009.22
2022-11-04T00:11:43.066Z,101013.41
2022-11-04T00:14:12.038Z,101009.97
2022-11-04T00:16:58.685Z,100984.94
2022-11-04T00:19:26.681Z,101008.25
2022-11-04T00:22:13.854Z,101008.13
2022-11-04T00:24:59.166Z,101012.78
2022-11-04T00:27:44.431Z,101004.84
2022-11-04T00:30:12.510Z,101005.72
2022-11-04T00:32:59.127Z,100999.47
2022-11-04T00:35:26.980Z,101001.44
2022-11-04T00:37:54.907Z,100995.19
2022-11-04T00:40:22.844Z,100988.97
2022-11-04T00:42:50.799Z,100992.38
2022-11-04T00:45:18.783Z,100990.78
2022-11-04T00:47:48.076Z,100995.19
2022-11-04T00:50:16.028Z,100989.84
2022-11-04T00:52:43.952Z,100995.06
2022-11-04T00:55:12.002Z,100995.06
2022-11-04T00:57:39.887Z,100996.06
2022-11-04T01:00:09.634Z,101000.56
2022-11-04T01:02:37.567Z,101003.03
2022-11-04T01:05:07.811Z,101003.75
2022-11-04T01:07:39.636Z,101002.03
2022-11-04T01:10:11.347Z,101007.53
2022-11-04T01:12:39.199Z,101003.13
2022-11-04T01:15:07.903Z,101012.16
2022-11-04T01:17:35.752Z,101002.50
2022-11-04T01:20:03.874Z,101005.19
2022-11-04T01:22:33.127Z,101001.75
2022-11-04T01:25:01.132Z,101004.59
2022-11-04T01:27:29.051Z,101003.84
2022-11-04T01:29:57.056Z,101000.41
2022-11-04T01:32:24.940Z,101004.94
2022-11-04T01:34:52.837Z,100991.63
2022-11-04T01:37:20.820Z,100995.41
2022-11-04T01:39:50.054Z,100994.66
2022-11-04T01:42:22.260Z,100996.63
2022-11-04T01:44:55.946Z,100995.84
2022-11-04T01:47:30.763Z,100995.13
2022-11-04T01:50:03.217Z,100999.91
2022-11-04T01:52:35.204Z,100995.50
2022-11-04T01:55:10.944Z,100998.31
2022-11-04T01:57:43.673Z,100991.34
2022-11-04T02:00:13.522Z,100988.03
2022-11-04T02:02:52.184Z,100991.56
2022-11-04T02:05:20.820Z,100988.25
2022-11-04T02:07:52.140Z,100986.44
2022-11-04T02:10:24.269Z,100990.06
2022-11-04T02:12:51.429Z,100981.28
2022-11-04T02:15:25.406Z,100986.53
2022-11-04T02:18:13.962Z,100983.97
2022-11-04T02:21:13.637Z,100966.09
2022-11-04T02:24:11.564Z,100980.66
2022-11-04T02:27:15.050Z,100983.47
2022-11-04T02:30:01.895Z,100973.81
2022-11-04T02:32:50.395Z,100988.09
2022-11-04T02:35:25.299Z,100981.88
2022-11-04T02:38:03.702Z,100987.25
2022-11-04T02:40:40.891Z,100988.16
2022-11-04T02:43:17.440Z,100990.00
2022-11-04T02:45:49.747Z,100989.38
2022-11-04T02:48:27.903Z,100996.56
2022-11-04T02:51:02.535Z,100991.44
2022-11-04T02:53:35.644Z,100993.25
2022-11-04T02:56:06.834Z,100991.44
2022-11-04T02:58:40.629Z,100986.19
2022-11-04T03:01:15.621Z,100987.16
2022-11-04T03:03:48.246Z,100989.97
2022-11-04T03:06:20.316Z,100984.59
2022-11-04T03:08:52.479Z,100978.38
2022-11-04T03:11:24.481Z,100964.81
2022-11-04T03:13:58.078Z,100977.63
2022-11-04T03:16:33.128Z,100975.06
2022-11-04T03:19:08.248Z,100962.00
2022-11-04T03:21:41.533Z,100970.69
2022-11-04T03:24:09.728Z,100967.22
2022-11-04T03:26:42.858Z,100979.69
2022-11-04T03:29:22.719Z,100971.63
2022-11-04T03:32:05.315Z,100970.91
2022-11-04T03:34:33.889Z,100972.00
2022-11-04T03:37:02.371Z,100972.09
2022-11-04T03:39:30.669Z,100980.13
2022-11-04T03:42:01.517Z,100974.78
2022-11-04T03:44:31.355Z,100978.44
2022-11-04T03:47:01.040Z,100972.22
2022-11-04T03:49:29.330Z,100969.53
2022-11-04T03:51:59.078Z,100970.50
2022-11-04T03:54:26.979Z,100971.34
2022-11-04T03:57:14.265Z,100967.72
2022-11-04T04:00:02.424Z,100956.34
2022-11-04T04:02:48.851Z,100973.19
2022-11-04T04:05:23.665Z,100966.97
2022-11-04T04:07:57.702Z,100975.97
2022-11-04T04:10:40.665Z,100966.97
2022-11-04T04:13:17.343Z,100978.66
2022-11-04T04:15:50.800Z,100975.03
2022-11-04T04:18:27.677Z,100970.63
2022-11-04T04:20:59.689Z,100973.31
2022-11-04T04:23:49.239Z,100968.81
2022-11-04T04:26:37.604Z,100971.72
2022-11-04T04:29:08.374Z,100978.03
2022-11-04T04:31:52.541Z,100981.47
2022-11-04T04:34:24.607Z,100987.81
2022-11-04T04:36:59.999Z,100994.75
2022-11-04T04:39:54.367Z,100988.66
2022-11-04T04:42:40.131Z,100969.31
2022-11-04T04:45:09.083Z,100984.59
2022-11-04T04:47:43.408Z,100984.59
2022-11-04T04:50:15.713Z,100972.72
2022-11-04T04:52:47.040Z,100989.22
2022-11-04T04:55:16.571Z,100982.28
2022-11-04T04:57:44.575Z,100993.72
2022-11-04T05:00:16.114Z,100981.28
2022-11-04T05:02:44.401Z,100980.41
2022-11-04T05:07:44.102Z,100981.28
2022-11-04T05:10:15.377Z,100986.66
2022-11-04T05:13:00.861Z,100982.28
2022-11-04T05:15:30.282Z,100979.81
2022-11-04T05:17:59.854Z,100980.53
2022-11-04T05:20:30.411Z,100978.72
2022-11-04T05:22:58.426Z,100984.09
2022-11-04T05:25:26.310Z,100980.41
2022-11-04T05:27:54.204Z,100978.59
2022-11-04T05:30:22.119Z,100981.19
2022-11-04T05:32:49.988Z,100981.19
2022-11-04T05:35:18.015Z,100989.22
2022-11-04T05:37:47.270Z,100987.38
2022-11-04T05:40:15.778Z,100982.03
2022-11-04T05:42:43.705Z,100987.38
2022-11-04T05:45:12.081Z,100976.78
2022-11-04T05:47:39.969Z,100981.06
2022-11-04T05:50:08.419Z,100988.16
2022-11-04T05:52:36.312Z,100983.75
2022-11-04T05:55:06.195Z,100981.78
2022-11-04T05:57:35.551Z,100980.19
2022-11-04T06:00:03.921Z,100982.78
2022-11-04T06:02:32.494Z,100981.06
2022-11-04T06:05:00.471Z,100983.88
2022-11-04T06:07:28.398Z,100979.59
2022-11-04T06:09:56.331Z,100984.94
2022-11-04T06:12:25.613Z,100978.59
2022-11-04T06:14:53.491Z,100971.88
2022-11-04T06:17:23.281Z,100981.28
2022-11-04T06:19:51.478Z,100972.00
2022-11-04T06:22:20.937Z,100980.53
2022-11-04T06:24:48.831Z,100975.19
2022-11-04T06:27:16.772Z,100981.50
2022-11-04T06:29:47.188Z,100979.69
2022-11-04T06:32:16.953Z,100982.38
2022-11-04T06:34:45.256Z,100979.81
2022-11-04T06:37:13.182Z,100980.69
2022-11-04T06:39:41.041Z,100978.94
2022-11-04T06:42:08.981Z,100978.00
2022-11-04T06:44:37.156Z,100974.66
2022-11-04T06:47:06.527Z,100977.88
2022-11-04T06:49:34.538Z,100975.41
2022-11-04T06:52:03.034Z,100981.50
2022-11-04T06:54:31.019Z,100980.53
2022-11-04T06:56:58.866Z,100984.09
2022-11-04T06:59:26.773Z,100984.94
2022-11-04T07:01:54.778Z,100987.63
2022-11-04T07:04:24.165Z,100981.41
2022-11-04T07:06:52.035Z,100991.28
2022-11-04T07:09:20.254Z,100990.41
2022-11-04T07:11:48.306Z,100993.09
2022-11-04T07:14:16.247Z,100984.19
2022-11-04T07:16:44.163Z,100992.13
2022-11-04T07:19:12.026Z,100998.44
2022-11-04T07:21:41.311Z,100993.09
2022-11-04T07:24:09.410Z,100993.09
2022-11-04T07:26:37.290Z,100996.75
2022-11-04T07:29:06.719Z,100996.84
2022-11-04T07:31:35.232Z,100971.06
2022-11-04T07:34:03.240Z,100997.81
2022-11-04T07:36:31.466Z,100990.13
2022-11-04T07:39:01.053Z,100991.72
2022-11-04T07:41:30.013Z,101001.47
2022-11-04T07:43:58.956Z,100991.09
2022-11-04T07:46:26.881Z,100990.97
2022-11-04T07:48:58.143Z,100939.63
2022-11-04T07:51:27.858Z,100981.78
2022-11-04T07:53:56.549Z,100997.06
2022-11-04T07:56:26.239Z,100980.09
2022-11-04T07:58:54.655Z,100996.34
2022-11-04T08:01:24.516Z,101006.94
2022-11-04T08:03:53.195Z,101004.03
2022-11-04T08:06:22.586Z,101003.09
2022-11-04T08:08:54.106Z,100998.44
2022-11-04T08:11:28.390Z,101002.72
2022-11-04T08:13:57.009Z,100981.22
2022-11-04T08:16:31.436Z,100994.59
2022-11-04T08:19:02.863Z,100997.16
2022-11-04T08:21:32.203Z,100997.03
2022-11-04T08:24:00.323Z,100987.16
2022-11-04T08:26:29.595Z,100985.22
2022-11-04T08:28:57.648Z,100985.22
2022-11-04T08:31:27.416Z,100981.56
2022-11-04T08:33:56.323Z,100981.47
2022-11-04T08:36:26.730Z,100981.47
2022-11-04T08:38:55.537Z,100969.47
2022-11-04T08:41:26.162Z,100986.59
2022-11-04T08:43:57.387Z,100978.44
2022-11-04T08:46:25.332Z,100978.44
2022-11-04T08:48:53.231Z,100967.59
2022-11-04T08:51:24.191Z,100971.13
2022-11-04T08:53:52.378Z,100968.44
2022-11-04T08:56:22.691Z,100955.50
2022-11-04T08:58:51.223Z,100957.50
2022-11-04T09:01:22.188Z,100960.91
2022-11-04T09:03:51.475Z,100958.88
2022-11-04T09:06:21.226Z,100964.09
2022-11-04T09:08:50.351Z,100957.78
2022-11-04T09:11:18.555Z,100964.84
2022-11-04T09:13:46.510Z,100962.06
2022-11-04T09:16:16.401Z,100957.53
2022-11-04T09:18:45.752Z,100957.41
2022-11-04T09:21:13.754Z,100953.13
2022-11-04T09:23:41.629Z,100959.97
2022-11-04T09:26:12.015Z,100965.25
2022-11-04T09:28:40.534Z,100967.78
2022-11-04T09:31:09.812Z,100962.44
2022-11-04T09:33:37.835Z,100971.22
2022-11-04T09:36:09.144Z,100972.06
2022-11-04T09:38:38.112Z,100958.38
2022-11-04T09:41:12.578Z,100971.00
2022-11-04T09:43:50.023Z,100971.88
2022-11-04T09:46:18.136Z,100969.31
2022-11-04T09:48:48.903Z,100959.31
2022-11-04T09:51:48.001Z,100974.47
2022-11-04T09:54:17.807Z,100969.94
2022-11-04T09:56:49.841Z,100953.66
2022-11-04T09:59:23.887Z,100976.88
2022-11-04T10:02:04.575Z,100970.78
2022-11-04T10:04:47.029Z,100971.66
2022-11-04T10:07:32.594Z,100968.00
2022-11-04T10:10:09.422Z,100969.09
2022-11-04T10:12:50.572Z,100967.38
2022-11-04T10:15:50.764Z,100979.81
2022-11-04T10:18:51.292Z,100975.41
2022-11-04T10:21:28.923Z,100986.28
2022-11-04T10:24:09.002Z,100983.47
2022-11-04T10:26:45.981Z,100979.06
2022-11-04T10:29:17.197Z,100988.84
2022-11-04T10:31:47.645Z,100977.97
2022-11-04T10:34:25.051Z,100989.69
2022-11-04T10:36:53.536Z,100982.59
2022-11-04T10:39:29.085Z,100982.38
2022-11-04T10:41:58.243Z,100986.88
2022-11-04T10:44:28.676Z,100986.66
2022-11-04T10:47:05.741Z,100985.78
2022-11-04T10:50:30.240Z,100984.09
2022-11-04T10:52:49.268Z,100980.66
2022-11-04T10:55:31.998Z,100982.25
2022-11-04T10:58:01.420Z,100977.75
2022-11-04T11:00:38.268Z,100983.00
2022-11-04T11:03:24.450Z,100984.72
2022-11-04T11:05:53.426Z,100998.13
2022-11-04T11:08:30.192Z,100984.47
2022-11-04T11:10:59.889Z,100988.03
2022-11-04T11:13:35.226Z,100994.47
2022-11-04T11:16:12.862Z,100987.78
2022-11-04T11:18:42.190Z,100974.09
2022-11-04T11:21:13.587Z,100982.28
2022-11-04T11:23:47.429Z,100979.50
2022-11-04T11:26:19.762Z,100975.09
2022-11-04T11:28:59.100Z,100979.50
2022-11-04T11:31:36.270Z,100975.34
2022-11-04T11:34:07.023Z,100978.53
2022-11-04T11:36:39.332Z,100974.75
2022-11-04T11:39:17.413Z,100976.47
2022-11-04T11:41:57.065Z,100964.25
2022-11-04T11:44:31.638Z,100973.78
2022-11-04T11:47:03.068Z,100972.06
2022-11-04T11:49:34.369Z,100972.78
2022-11-04T11:52:33.261Z,100973.66
2022-11-04T11:55:07.537Z,100967.41
2022-11-04T12:00:44.370Z,100970.88
2022-11-04T12:03:21.061Z,100962.81
2022-11-04T12:09:18.937Z,100955.59
2022-11-04T12:12:06.451Z,100959.88
2022-11-04T12:14:49.323Z,100956.34
2022-11-04T12:17:30.807Z,100960.25
2022-11-04T12:20:17.024Z,100962.81
2022-11-04T12:22:56.647Z,100961.00
2022-11-04T12:25:33.214Z,100958.94
2022-11-04T12:28:11.379Z,100957.13
2022-11-04T12:30:52.343Z,100963.06
2022-11-04T12:33:33.232Z,100962.97
2022-11-04T12:36:27.024Z,100951.38
2022-11-04T12:39:12.309Z,100950.16
2022-11-04T12:44:43.361Z,100942.00
2022-11-04T12:47:26.651Z,100949.44
2022-11-04T12:50:07.490Z,100939.06
2022-11-04T12:52:57.116Z,100962.41
2022-11-04T12:55:42.525Z,100944.56
2022-11-04T12:58:28.934Z,100949.44
2022-11-04T13:01:02.853Z,100950.19
2022-11-04T13:03:45.432Z,100956.22
2022-11-04T13:06:18.643Z,100933.81
2022-11-04T13:08:52.994Z,100954.84
2022-11-04T13:11:31.430Z,100947.53
2022-11-04T13:14:05.150Z,100951.66
2022-11-04T13:16:38.372Z,100950.56
2022-11-04T13:19:17.409Z,100946.53
2022-11-04T13:21:45.631Z,100951.44
2022-11-04T13:24:22.413Z,100954.59
2022-11-04T13:26:52.650Z,100952.50
2022-11-04T13:29:22.776Z,100946.16
2022-11-04T13:31:58.616Z,100952.16
2022-11-04T13:34:40.154Z,100959.34
2022-11-04T13:37:17.254Z,100945.06
2022-11-04T13:39:51.038Z,100941.41
2022-11-04T13:42:36.301Z,100947.50
2022-11-04T13:45:10.949Z,100946.50
2022-11-04T13:47:46.617Z,100941.13
2022-11-04T13:50:32.794Z,100944.56
2022-11-04T13:53:01.102Z,100944.81
2022-11-04T13:55:29.171Z,100937.59
2022-11-04T13:58:00.506Z,100942.84
2022-11-04T14:00:29.525Z,100951.88
2022-11-04T14:03:00.037Z,100951.88
2022-11-04T14:06:06.643Z,100965.22
2022-11-04T14:08:35.652Z,100922.59
2022-11-04T14:11:07.769Z,100963.63
2022-11-04T14:13:44.286Z,100955.56
2022-11-04T14:16:16.048Z,100963.00
2022-11-04T14:18:46.613Z,100963.00
2022-11-04T14:21:17.788Z,100962.16
2022-11-04T14:23:48.855Z,100970.34
2022-11-04T14:26:22.047Z,100960.69
2022-11-04T14:29:01.959Z,100961.66
2022-11-04T14:31:37.411Z,100961.81
2022-11-04T14:34:06.532Z,100965.47
2022-11-04T14:36:38.353Z,100960.09
2022-11-04T14:39:22.021Z,100968.28
2022-11-04T14:41:52.751Z,100963.88
2022-11-04T14:44:29.368Z,100969.25
2022-11-04T14:47:00.833Z,100956.06
2022-11-04T14:49:48.289Z,100973.75
2022-11-04T14:52:27.902Z,100961.19
2022-11-04T14:54:59.200Z,100965.69
2022-11-04T14:57:30.113Z,100964.88
2022-11-04T14:59:58.179Z,100953.88
2022-11-04T15:02:29.993Z,100963.88
2022-11-04T15:05:00.968Z,100957.78
2022-11-04T15:07:38.112Z,100945.44
2022-11-04T15:10:22.279Z,100956.91
2022-11-04T15:12:54.617Z,100951.69
2022-11-04T15:15:32.890Z,100950.94
2022-11-04T15:18:03.897Z,100955.22
2022-11-04T15:20:32.921Z,100954.47
2022-11-04T15:23:04.762Z,100953.50
2022-11-04T15:25:32.799Z,100961.69
2022-11-04T15:28:00.940Z,100962.53
2022-11-04T15:30:31.739Z,100959.84
2022-11-04T15:33:01.413Z,100963.38
2022-11-04T15:35:31.474Z,100962.41
2022-11-04T15:38:02.029Z,100957.78
2022-11-04T15:40:34.938Z,100959.34
2022-11-04T15:43:04.209Z,100961.81
2022-11-04T15:45:38.606Z,100963.38
2022-11-04T15:48:25.784Z,100959.00
2022-11-04T15:51:03.710Z,100966.31
2022-11-04T15:53:33.147Z,100967.31
2022-11-04T15:56:02.888Z,100970.88
2022-11-04T15:58:31.727Z,100962.91
2022-11-04T16:00:59.739Z,100965.72
2022-11-04T16:03:27.704Z,100964.97
2022-11-04T16:06:04.007Z,100958.53
2022-11-04T16:08:33.326Z,100964.00
2022-11-04T16:11:14.501Z,100956.66
2022-11-04T16:13:43.187Z,100947.25
2022-11-04T16:16:24.288Z,100954.22
2022-11-04T16:18:54.756Z,100954.34
2022-11-04T16:21:26.775Z,100933.06
2022-11-04T16:23:58.841Z,100953.75
2022-11-04T16:26:31.108Z,100950.22
2022-11-04T16:29:01.895Z,100948.50
2022-11-04T16:31:35.223Z,100933.94
2022-11-04T16:34:03.558Z,100947.06
2022-11-04T16:36:35.582Z,100957.78
2022-11-04T16:39:08.720Z,100951.56
2022-11-04T16:41:39.948Z,100962.41
2022-11-04T16:44:20.279Z,100965.09
2022-11-04T16:46:48.231Z,100955.56
2022-11-04T16:49:18.375Z,100956.41
2022-11-04T16:51:46.632Z,100960.94
2022-11-04T16:54:14.589Z,100968.13
2022-11-04T16:56:45.444Z,100963.72
2022-11-04T16:59:13.636Z,100960.44
2022-11-04T17:01:42.146Z,100960.66
2022-11-04T17:04:10.724Z,100966.03
2022-11-04T17:06:38.851Z,100959.09
2022-11-04T17:09:19.327Z,100969.97
2022-11-04T17:11:51.209Z,100956.88
2022-11-04T17:14:19.083Z,100965.91
2022-11-04T17:16:47.397Z,100973.97
2022-11-04T17:19:16.880Z,100974.09
2022-11-04T17:21:46.219Z,100967.97
2022-11-04T17:24:15.037Z,100968.34
2022-11-04T17:26:43.140Z,100974.59
2022-11-04T17:29:17.146Z,100974.59
2022-11-04T17:31:45.535Z,100963.31
2022-11-04T17:34:13.558Z,100967.72
2022-11-04T17:36:41.506Z,100964.31
2022-11-04T17:39:09.409Z,100956.34
2022-11-04T17:41:54.754Z,100956.50
2022-11-04T17:44:24.170Z,100961.13
2022-11-04T17:46:52.256Z,100954.03
2022-11-04T17:49:22.099Z,100947.22
2022-11-04T17:51:53.612Z,100955.13
2022-11-04T17:54:22.435Z,100946.22
2022-11-04T17:56:50.700Z,100946.44
2022-11-04T17:59:18.704Z,100951.09
2022-11-04T18:01:48.235Z,100944.13
2022-11-04T18:04:17.956Z,100948.53
2022-11-04T18:06:46.310Z,100947.81
2022-11-04T18:09:15.163Z,100949.72
2022-11-04T18:12:01.379Z,100924.81
2022-11-04T18:14:29.554Z,100938.41
2022-11-04T18:16:58.952Z,100940.09
2022-11-04T18:19:27.469Z,100941.06
2022-11-04T18:21:55.492Z,100937.66
2022-11-04T18:24:25.431Z,100933.13
2022-11-04T18:26:53.624Z,100929.84
2022-11-04T18:29:22.987Z,100909.69
2022-11-04T18:31:50.912Z,100919.34
2022-11-04T18:34:20.697Z,100923.72
2022-11-04T18:36:49.348Z,100927.41
2022-11-04T18:39:19.348Z,100923.97
2022-11-04T18:41:47.406Z,100927.63
2022-11-04T18:44:16.975Z,100916.03
2022-11-04T18:46:45.212Z,100910.88
2022-11-04T18:49:14.247Z,100916.16
2022-11-04T18:51:44.144Z,100895.25
2022-11-04T18:54:13.375Z,100902.97
2022-11-04T18:56:42.015Z,100901.25
2022-11-04T18:59:10.841Z,100907.47
2022-11-04T19:01:39.142Z,100889.03
2022-11-04T19:04:07.259Z,100893.34
2022-11-04T19:06:40.390Z,100900.28
2022-11-04T19:12:13.571Z,100899.63
2022-11-04T19:14:41.457Z,100898.75
2022-11-04T19:17:09.702Z,100904.13
2022-11-04T19:19:37.683Z,100900.63
2022-11-04T19:22:05.645Z,100905.88
2022-11-04T19:24:35.079Z,100882.66
2022-11-04T19:27:03.028Z,100895.59
2022-11-04T19:29:32.531Z,100899.75
2022-11-04T19:32:00.588Z,100896.34
2022-11-04T19:34:28.654Z,100902.53
2022-11-04T19:36:56.744Z,100907.06
2022-11-04T19:39:24.655Z,100909.00
2022-11-04T19:42:11.152Z,100907.19
2022-11-04T19:44:39.176Z,100914.50
2022-11-04T19:47:08.893Z,100912.78
2022-11-04T19:49:36.904Z,100917.31
2022-11-04T19:52:05.291Z,100918.28
2022-11-04T19:54:33.280Z,100917.31
2022-11-04T19:57:02.635Z,100916.53
2022-11-04T19:59:30.628Z,100914.84
2022-11-04T20:01:58.806Z,100915.81
2022-11-04T20:04:26.928Z,100913.13
2022-11-04T20:06:54.959Z,100910.56
2022-11-04T20:09:23.416Z,100902.75
2022-11-04T20:12:08.990Z,100918.63
2022-11-04T20:14:38.486Z,100912.41
2022-11-04T20:17:07.159Z,100919.72
2022-11-04T20:19:36.069Z,100908.47
2022-11-04T20:22:04.008Z,100920.44
2022-11-04T20:24:32.145Z,100912.25
2022-11-04T20:27:00.073Z,100931.41
2022-11-04T20:29:28.009Z,100946.53
2022-11-04T20:31:58.370Z,100950.06
2022-11-04T20:34:30.197Z,100943.84
2022-11-04T20:37:01.582Z,100942.13
2022-11-04T20:39:30.050Z,100940.31
2022-11-04T20:41:57.944Z,100940.41
2022-11-04T20:44:25.967Z,100946.03
2022-11-04T20:46:53.859Z,100938.72
2022-11-04T20:49:23.322Z,100944.94
2022-11-04T20:51:55.408Z,100948.59
2022-11-04T20:54:23.451Z,100946.03
2022-11-04T20:56:51.476Z,100952.34
2022-11-04T20:59:19.375Z,100938.09
2022-11-04T21:01:48.796Z,100922.56
2022-11-04T21:04:22.177Z,100937.34
2022-11-04T21:06:52.448Z,100921.72
2022-11-04T21:09:22.221Z,100924.91
2022-11-04T21:11:50.300Z,100925.88
2022-11-04T21:14:20.328Z,100905.34
2022-11-04T21:16:48.836Z,100928.66
2022-11-04T21:19:17.100Z,100932.22
2022-11-04T21:21:47.055Z,100936.63
2022-11-04T21:24:17.580Z,100929.53
2022-11-04T21:26:46.695Z,100928.66
2022-11-04T21:29:17.121Z,100919.38
2022-11-04T21:31:46.031Z,100936.72
2022-11-04T21:34:14.187Z,100928.66
2022-11-04T21:36:42.353Z,100915.75
2022-11-04T21:39:11.177Z,100925.97
2022-11-04T21:41:40.784Z,100924.16
2022-11-04T21:44:11.039Z,100918.94
2022-11-04T21:46:38.977Z,100925.88
2022-11-04T21:49:07.276Z,100913.78
2022-11-04T21:51:35.405Z,100916.25
2022-11-04T21:54:07.472Z,100924.28
2022-11-04T21:56:35.905Z,100928.81
2022-11-04T21:59:05.777Z,100907.56
2022-11-04T22:01:34.252Z,100922.69
2022-11-04T22:04:03.245Z,100913.78
2022-11-04T22:06:35.220Z,100918.28
2022-11-04T22:09:05.929Z,100920.13
2022-11-04T22:11:36.546Z,100915.63
2022-11-04T22:14:08.436Z,100911.47
2022-11-04T22:16:38.793Z,100917.56
2022-11-04T22:19:09.907Z,100907.78
2022-11-04T22:21:40.198Z,100888.44
2022-11-04T22:24:11.122Z,100894.38
2022-11-04T22:26:39.420Z,100889.16
2022-11-04T22:29:09.055Z,100898.88
2022-11-04T22:31:38.743Z,100904.38
2022-11-04T22:34:07.272Z,100897.19
2022-11-04T22:36:35.502Z,100900.84
2022-11-04T22:39:03.488Z,100901.69
2022-11-04T22:41:34.438Z,100892.19
2022-11-04T22:44:03.287Z,100905.47
2022-11-04T22:46:35.176Z,100899.97
2022-11-04T22:49:03.133Z,100907.28
2022-11-04T22:51:32.506Z,100893.03
2022-11-04T22:54:07.536Z,100896.56
2022-11-04T22:56:36.372Z,100889.59
2022-11-04T22:59:04.522Z,100901.06
2022-11-04T23:01:34.353Z,100892.06
2022-11-04T23:04:02.830Z,100890.34
2022-11-04T23:06:30.994Z,100890.34
2022-11-04T23:09:00.692Z,100895.47
2022-11-04T23:11:52.252Z,100896.34
2022-11-04T23:14:39.760Z,100892.56
2022-11-04T23:17:30.243Z,100887.84
2022-11-04T23:19:58.176Z,100889.66
2022-11-04T23:22:43.424Z,100890.41
2022-11-04T23:25:12.272Z,100888.44
2022-11-04T23:27:59.313Z,100891.88
2022-11-04T23:30:29.793Z,100897.13
2022-11-04T23:33:00.216Z,100885.31
2022-11-04T23:35:47.776Z,100881.66
2022-11-04T23:38:15.756Z,100887.13
2022-11-04T23:41:04.191Z,100885.06
2022-11-04T23:43:31.571Z,100885.94
2022-11-04T23:46:16.628Z,100869.22
2022-11-04T23:49:03.845Z,100864.22
2022-11-04T23:51:49.620Z,100860.81
2022-11-04T23:54:34.876Z,100867.91
2022-11-04T23:57:20.074Z,100856.06
